Time;durP1;ratioP1;P1;durP2;ratioP2;P2;SDS_P1;SDS_P2;PMS_P1;PMS_P2;Temp;Humidity;BMP_temperature;BMP_pressure;BME280_temperature;BME280_humidity;BME280_pressure;Samples;Min_cycle;Max_cycle;Signal;HPM_P1;HPM_P2
2022/08/22 00:00:12;;;;;;;10.70;7.23;;;18.90;99.90;;;;;;5026512;28;20495;-80
2022/08/22 00:02:49;;;;;;;10.00;7.73;;;18.90;99.90;;;;;;5023855;28;20470;-80
2022/08/22 00:05:29;;;;;;;9.10;6.40;;;18.90;99.90;;;;;;5024500;28;20446;-80
2022/08/22 00:08:06;;;;;;;6.90;6.20;;;18.80;99.90;;;;;;5029242;28;20445;-81
2022/08/22 00:10:48;;;;;;;7.63;6.50;;;18.80;99.90;;;;;;5020522;28;20450;-81
2022/08/22 00:13:25;;;;;;;7.90;6.70;;;18.90;99.90;;;;;;5025699;28;20532;-80
2022/08/22 00:15:59;;;;;;;8.93;6.70;;;18.80;99.90;;;;;;5032961;28;20442;-80
2022/08/22 00:18:32;;;;;;;7.60;6.63;;;18.90;99.90;;;;;;5046535;28;20438;-80
2022/08/22 00:21:08;;;;;;;6.87;6.27;;;18.90;99.90;;;;;;5051385;28;20445;-81
2022/08/22 00:23:43;;;;;;;8.43;6.90;;;18.90;99.90;;;;;;5045992;28;20457;-81
2022/08/22 00:26:23;;;;;;;12.50;6.10;;;18.90;99.90;;;;;;5039754;28;20848;-80
2022/08/22 00:28:52;;;;;;;7.30;5.80;;;18.80;99.90;;;;;;5023840;28;20448;-81
2022/08/22 00:31:26;;;;;;;9.43;6.90;;;18.80;99.90;;;;;;5023902;28;20826;-80
2022/08/22 00:34:00;;;;;;;10.33;6.57;;;18.90;99.90;;;;;;5036424;28;20470;-80
2022/08/22 00:36:33;;;;;;;10.13;6.57;;;18.90;99.90;;;;;;5029135;28;20512;-80
2022/08/22 00:39:10;;;;;;;7.77;7.07;;;18.80;99.90;;;;;;5025316;28;20449;-81
2022/08/22 00:42:03;;;;;;;9.40;6.87;;;18.80;99.90;;;;;;5026269;28;20464;-79
2022/08/22 00:44:54;;;;;;;9.70;6.43;;;18.80;99.90;;;;;;5029850;28;20447;-79
2022/08/22 00:47:43;;;;;;;12.50;6.70;;;18.80;99.90;;;;;;5033260;28;20439;-79
2022/08/22 00:50:27;;;;;;;7.50;6.33;;;18.70;99.90;;;;;;5025842;28;20803;-80
2022/08/22 00:53:08;;;;;;;9.60;8.03;;;18.60;99.90;;;;;;5021609;28;20876;-80
2022/08/22 00:55:46;;;;;;;11.50;8.67;;;18.60;99.90;;;;;;5023006;28;20446;-80
2022/08/22 00:58:37;;;;;;;13.57;8.33;;;18.50;99.90;;;;;;5032291;28;21012;-81
2022/08/22 01:01:07;;;;;;;9.47;7.57;;;18.40;99.90;;;;;;5041327;28;20429;-81
2022/08/22 01:04:03;;;;;;;7.63;6.67;;;18.40;99.90;;;;;;5052857;28;20467;-80
2022/08/22 01:06:41;;;;;;;10.10;7.23;;;18.30;99.90;;;;;;5041031;28;20449;-79
2022/08/22 01:09:23;;;;;;;8.17;7.30;;;18.30;99.90;;;;;;5028730;28;20513;-79
2022/08/22 01:12:09;;;;;;;10.57;7.20;;;18.20;99.90;;;;;;5036376;28;20434;-79
2022/08/22 01:14:45;;;;;;;8.80;6.90;;;18.20;99.90;;;;;;5026551;28;20537;-80
2022/08/22 01:17:29;;;;;;;10.30;7.77;;;18.20;99.90;;;;;;5028048;28;20480;-80
2022/08/22 01:20:26;;;;;;;9.30;8.13;;;18.10;99.90;;;;;;5022424;28;20784;-80
2022/08/22 01:23:39;;;;;;;10.03;7.93;;;18.10;99.90;;;;;;5021072;28;20547;-79
2022/08/22 01:26:38;;;;;;;10.37;6.90;;;18.00;99.90;;;;;;5028114;28;20841;-79
2022/08/22 01:29:53;;;;;;;9.67;7.17;;;17.90;99.90;;;;;;5029797;28;20438;-80
2022/08/22 01:32:58;;;;;;;7.57;6.70;;;17.90;99.90;;;;;;5031482;28;20463;-80
2022/08/22 01:35:58;;;;;;;9.40;7.17;;;17.90;99.90;;;;;;5034657;28;20430;-80
2022/08/22 01:38:47;;;;;;;8.00;7.10;;;17.80;99.90;;;;;;5049694;28;20467;-80
2022/08/22 01:41:29;;;;;;;10.00;6.90;;;17.70;99.90;;;;;;5045654;28;20443;-80
2022/08/22 01:44:14;;;;;;;8.60;6.87;;;17.70;99.90;;;;;;5028916;28;20462;-80
2022/08/22 01:46:51;;;;;;;9.70;6.97;;;17.70;99.90;;;;;;5023388;28;20469;-80
2022/08/22 01:49:23;;;;;;;7.93;6.43;;;17.70;99.90;;;;;;5030591;28;20469;-79
2022/08/22 01:51:57;;;;;;;8.70;6.60;;;17.70;99.90;;;;;;5034464;28;20437;-79
2022/08/22 01:54:35;;;;;;;7.23;6.57;;;17.60;99.90;;;;;;5027620;28;20453;-80
2022/08/22 01:57:07;;;;;;;8.80;7.27;;;17.50;99.90;;;;;;5035020;28;20486;-79
2022/08/22 01:59:37;;;;;;;9.10;7.53;;;17.40;99.90;;;;;;5031949;28;20481;-80
2022/08/22 02:02:21;;;;;;;9.07;7.70;;;17.40;99.90;;;;;;5025889;28;20462;-80
2022/08/22 02:04:55;;;;;;;8.60;7.53;;;17.40;99.90;;;;;;5027507;28;20449;-80
2022/08/22 02:07:27;;;;;;;9.57;7.80;;;17.40;99.90;;;;;;5028179;28;20465;-80
2022/08/22 02:10:12;;;;;;;7.97;7.27;;;17.30;99.90;;;;;;5024988;28;20443;-80
2022/08/22 02:12:45;;;;;;;7.97;6.33;;;17.20;99.90;;;;;;5028347;28;20493;-80
2022/08/22 02:15:26;;;;;;;8.17;6.80;;;17.20;99.90;;;;;;5031537;28;20484;-79
2022/08/22 02:18:04;;;;;;;9.53;7.40;;;17.30;99.90;;;;;;5029456;28;20899;-79
2022/08/22 02:20:38;;;;;;;10.40;7.83;;;17.20;99.90;;;;;;5030156;28;20477;-79
2022/08/22 02:23:19;;;;;;;9.60;7.10;;;17.20;99.90;;;;;;5025928;28;20462;-80
2022/08/22 02:25:52;;;;;;;8.43;7.60;;;17.20;99.90;;;;;;5029549;28;20446;-80
2022/08/22 02:28:31;;;;;;;7.80;6.80;;;17.10;99.90;;;;;;5028738;28;20438;-79
2022/08/22 02:31:04;;;;;;;9.93;7.43;;;17.10;99.90;;;;;;5028466;28;20942;-80
2022/08/22 02:33:38;;;;;;;9.73;7.80;;;17.10;99.90;;;;;;5038809;28;20461;-79
2022/08/22 02:36:13;;;;;;;8.03;7.33;;;17.10;99.90;;;;;;5035377;28;20866;-78
2022/08/22 02:38:51;;;;;;;13.50;8.63;;;17.00;99.90;;;;;;5026330;28;20480;-78
2022/08/22 02:41:35;;;;;;;9.60;7.83;;;17.00;99.90;;;;;;5026644;28;20473;-80
2022/08/22 02:44:04;;;;;;;8.70;7.00;;;17.00;99.90;;;;;;5025775;28;20446;-79
2022/08/22 02:46:45;;;;;;;8.83;7.90;;;16.90;99.90;;;;;;5020236;28;20465;-79
2022/08/22 02:49:19;;;;;;;11.07;7.67;;;16.80;99.90;;;;;;5026510;28;20437;-79
2022/08/22 02:51:53;;;;;;;8.10;6.90;;;16.80;99.90;;;;;;5026887;28;20496;-79
2022/08/22 02:54:27;;;;;;;11.30;7.53;;;16.80;99.90;;;;;;5032089;28;20450;-79
2022/08/22 02:57:01;;;;;;;8.73;6.97;;;16.70;99.90;;;;;;5033938;28;20473;-78
2022/08/22 02:59:34;;;;;;;9.67;8.13;;;16.70;99.90;;;;;;5031163;28;20812;-79
2022/08/22 03:02:32;;;;;;;9.37;8.47;;;16.70;99.90;;;;;;5033868;28;22440;-79
2022/08/22 03:05:01;;;;;;;11.53;8.80;;;16.70;99.90;;;;;;5023581;28;20429;-79
2022/08/22 03:07:39;;;;;;;11.90;8.30;;;16.70;99.90;;;;;;5022231;28;20439;-79
2022/08/22 03:10:17;;;;;;;9.77;7.80;;;16.80;99.90;;;;;;5026582;28;20434;-79
2022/08/22 03:12:53;;;;;;;10.50;7.43;;;16.70;99.90;;;;;;5028253;28;20484;-79
2022/08/22 03:15:25;;;;;;;7.53;6.73;;;16.70;99.90;;;;;;5026274;28;20440;-79
2022/08/22 03:17:58;;;;;;;8.83;7.50;;;16.60;99.90;;;;;;5028510;28;20481;-79
2022/08/22 03:20:42;;;;;;;8.50;6.93;;;16.60;99.90;;;;;;5021676;28;20442;-79
2022/08/22 03:23:15;;;;;;;11.60;8.10;;;16.50;99.90;;;;;;5023978;28;20467;-79
2022/08/22 03:25:49;;;;;;;12.20;8.07;;;16.50;99.90;;;;;;5024358;28;20450;-79
2022/08/22 03:28:21;;;;;;;10.17;8.47;;;16.40;99.90;;;;;;5022311;28;20455;-79
2022/08/22 03:30:58;;;;;;;9.50;8.60;;;16.40;99.90;;;;;;5026310;28;20451;-79
2022/08/22 03:33:26;;;;;;;8.70;6.80;;;16.40;99.90;;;;;;5026972;28;20465;-79
2022/08/22 03:36:09;;;;;;;10.80;8.17;;;16.30;99.90;;;;;;5032318;28;20957;-79
2022/08/22 03:38:52;;;;;;;8.70;7.90;;;16.40;99.90;;;;;;5024390;28;20863;-79
2022/08/22 03:41:55;;;;;;;12.40;9.20;;;16.30;99.90;;;;;;5027984;28;20819;-79
2022/08/22 03:45:01;;;;;;;8.00;7.17;;;16.30;99.90;;;;;;5020852;28;20449;-79
2022/08/22 03:47:52;;;;;;;10.63;8.33;;;16.20;99.90;;;;;;4967791;28;20600;-80
2022/08/22 03:50:56;;;;;;;9.00;7.40;;;16.30;99.90;;;;;;5026165;28;20529;-80
2022/08/22 03:53:41;;;;;;;11.13;8.57;;;16.30;99.90;;;;;;5027031;28;20562;-79
2022/08/22 03:56:38;;;;;;;8.40;7.60;;;16.30;99.90;;;;;;5023008;28;20433;-79
2022/08/22 03:59:36;;;;;;;11.50;8.77;;;16.20;99.90;;;;;;5024561;28;20485;-79
2022/08/22 04:02:16;;;;;;;9.83;8.20;;;16.20;99.90;;;;;;5029438;28;20459;-79
2022/08/22 04:05:15;;;;;;;9.17;8.13;;;16.20;99.90;;;;;;5029629;28;20467;-79
2022/08/22 04:08:04;;;;;;;10.30;7.80;;;16.20;99.90;;;;;;5023534;28;20512;-79
2022/08/22 04:10:59;;;;;;;10.70;8.20;;;16.20;99.90;;;;;;5030107;28;20442;-78
2022/08/22 04:13:57;;;;;;;8.43;7.53;;;16.10;99.90;;;;;;5015007;28;20470;-79
2022/08/22 04:16:59;;;;;;;13.13;8.87;;;16.10;99.90;;;;;;5014867;28;20462;-79
2022/08/22 04:19:57;;;;;;;15.20;8.93;;;16.10;99.90;;;;;;5022979;28;20446;-79
2022/08/22 04:22:49;;;;;;;9.00;8.07;;;16.10;99.90;;;;;;5021677;28;20459;-79
2022/08/22 04:25:22;;;;;;;12.77;8.73;;;16.10;99.90;;;;;;5022798;28;20438;-79
2022/08/22 04:27:54;;;;;;;10.20;7.60;;;16.20;99.90;;;;;;5031408;28;20524;-78
2022/08/22 04:30:26;;;;;;;14.80;8.67;;;16.10;99.90;;;;;;5030829;28;20908;-79
2022/08/22 04:32:56;;;;;;;15.23;9.83;;;16.10;99.90;;;;;;5025950;28;20454;-79
2022/08/22 04:35:30;;;;;;;11.10;9.10;;;16.10;99.90;;;;;;5022850;28;20431;-79
2022/08/22 04:38:04;;;;;;;10.03;8.60;;;16.10;99.90;;;;;;5027117;28;20481;-79
2022/08/22 04:40:37;;;;;;;13.90;9.47;;;16.10;99.90;;;;;;5022835;28;20437;-79
2022/08/22 04:43:11;;;;;;;10.73;9.60;;;16.10;99.90;;;;;;5022508;28;20468;-78
2022/08/22 04:45:41;;;;;;;12.50;7.93;;;16.10;99.90;;;;;;5022046;28;20453;-78
2022/08/22 04:48:13;;;;;;;10.43;8.90;;;16.10;99.90;;;;;;5022319;28;20490;-78
2022/08/22 04:50:45;;;;;;;15.27;9.80;;;16.10;99.90;;;;;;5024551;28;20442;-78
2022/08/22 04:53:25;;;;;;;11.37;8.40;;;16.10;99.90;;;;;;5023257;28;20474;-79
2022/08/22 04:56:02;;;;;;;14.50;10.07;;;16.20;99.90;;;;;;5033122;28;20819;-78
2022/08/22 04:58:39;;;;;;;12.07;9.60;;;16.20;99.90;;;;;;5034509;28;20491;-78
2022/08/22 05:01:13;;;;;;;12.17;9.03;;;16.20;99.90;;;;;;5035296;28;20835;-79
2022/08/22 05:03:45;;;;;;;11.60;8.30;;;16.20;99.90;;;;;;5032836;28;20470;-79
2022/08/22 05:06:18;;;;;;;10.87;9.63;;;16.30;99.90;;;;;;5031652;28;20465;-79
2022/08/22 05:08:48;;;;;;;11.00;8.83;;;16.40;99.90;;;;;;5026538;28;20810;-78
2022/08/22 05:11:19;;;;;;;16.97;9.50;;;16.40;99.90;;;;;;5023232;28;20458;-78
2022/08/22 05:13:52;;;;;;;14.00;10.20;;;16.50;99.90;;;;;;5024124;28;20478;-78
2022/08/22 05:16:24;;;;;;;16.07;9.27;;;16.60;99.90;;;;;;5021780;28;20457;-79
2022/08/22 05:18:54;;;;;;;11.00;9.77;;;16.70;99.90;;;;;;5023689;28;20478;-79
2022/08/22 05:21:25;;;;;;;15.00;9.73;;;16.80;99.90;;;;;;5024834;28;20438;-78
2022/08/22 05:23:57;;;;;;;14.53;10.47;;;16.90;99.90;;;;;;5055687;22;20519;-83
2022/08/22 05:26:26;;;;;;;16.17;10.10;;;17.00;99.90;;;;;;5053545;28;20479;-82
2022/08/22 05:28:57;;;;;;;11.10;8.87;;;17.00;99.90;;;;;;5047661;28;20752;-83
2022/08/22 05:31:28;;;;;;;15.33;10.00;;;17.10;99.90;;;;;;5071822;28;20447;-79
2022/08/22 05:34:02;;;;;;;18.10;11.17;;;17.20;99.90;;;;;;5062442;28;20459;-80
2022/08/22 05:36:32;;;;;;;15.07;10.00;;;17.20;99.90;;;;;;5053619;28;20456;-80
2022/08/22 05:39:03;;;;;;;15.17;10.70;;;17.20;99.90;;;;;;5051259;28;20476;-79
2022/08/22 05:41:35;;;;;;;12.53;9.40;;;17.20;99.90;;;;;;5054859;28;20433;-80
2022/08/22 05:44:02;;;;;;;21.13;9.83;;;17.20;99.90;;;;;;5059314;28;20472;-82
2022/08/22 05:46:39;;;;;;;10.80;9.40;;;17.30;99.90;;;;;;5052286;28;20448;-81
2022/08/22 05:49:16;;;;;;;11.00;9.67;;;17.30;99.90;;;;;;5054645;28;20434;-82
2022/08/22 05:51:50;;;;;;;15.87;9.60;;;17.30;99.90;;;;;;5064212;28;20420;-79
2022/08/22 05:54:22;;;;;;;14.73;10.03;;;17.40;99.90;;;;;;5062787;28;20456;-80
2022/08/22 05:56:54;;;;;;;12.90;9.43;;;17.90;99.90;;;;;;5060392;28;20445;-82
2022/08/22 05:59:25;;;;;;;12.13;8.10;;;18.50;99.90;;;;;;5054050;28;20480;-81
2022/08/22 06:02:03;;;;;;;12.80;9.20;;;18.50;99.90;;;;;;5051003;28;20825;-83
2022/08/22 06:04:35;;;;;;;14.00;8.80;;;18.70;99.90;;;;;;5045061;28;20464;-81
2022/08/22 06:07:07;;;;;;;10.93;7.90;;;18.70;99.90;;;;;;5049925;28;20807;-85
2022/08/22 06:10:14;;;;;;;11.47;9.40;;;18.60;99.90;;;;;;5057201;28;20433;-80
2022/08/22 06:12:47;;;;;;;14.03;8.63;;;18.70;99.90;;;;;;5056518;28;20449;-83
2022/08/22 06:15:17;;;;;;;13.03;8.30;;;19.00;99.90;;;;;;5066891;28;20420;-80
2022/08/22 06:17:47;;;;;;;14.73;8.93;;;19.70;99.90;;;;;;5066679;28;21019;-80
2022/08/22 06:20:25;;;;;;;15.17;9.23;;;20.70;99.90;;;;;;5066688;28;20665;-80
2022/08/22 06:22:56;;;;;;;11.17;9.83;;;21.40;99.40;;;;;;5061722;28;21042;-82
2022/08/22 06:25:29;;;;;;;12.47;8.60;;;22.30;97.10;;;;;;5040844;28;20449;-83
2022/08/22 06:27:58;;;;;;;9.10;7.97;;;23.00;94.10;;;;;;5045036;28;20469;-81
2022/08/22 06:30:28;;;;;;;10.03;7.60;;;23.50;92.20;;;;;;5054667;28;20446;-81
2022/08/22 06:33:00;;;;;;;8.90;8.00;;;23.90;90.80;;;;;;5046952;28;20469;-83
2022/08/22 06:36:29;;;;;;;8.27;7.47;;;24.00;88.50;;;;;;5059694;28;20442;-84
2022/08/22 06:38:20;;;;;;;11.10;7.60;;;24.00;87.10;;;;;;5059241;28;20549;-84
2022/08/22 06:40:49;;;;;;;11.20;6.93;;;24.30;85.00;;;;;;5064311;28;20454;-82
2022/08/22 06:43:17;;;;;;;8.27;6.80;;;24.80;83.20;;;;;;5071817;28;20471;-81
2022/08/22 06:45:44;;;;;;;10.03;7.00;;;25.50;79.40;;;;;;5073109;28;20507;-81
2022/08/22 06:48:18;;;;;;;8.13;6.33;;;25.80;76.80;;;;;;5071422;28;20451;-82
2022/08/22 06:50:50;;;;;;;8.10;6.10;;;26.00;74.00;;;;;;5079769;28;20443;-79
2022/08/22 06:53:20;;;;;;;7.13;5.80;;;26.20;72.50;;;;;;5080564;28;20460;-79
2022/08/22 06:55:51;;;;;;;7.87;5.60;;;26.30;71.40;;;;;;5078526;28;20453;-82
2022/08/22 06:58:21;;;;;;;8.30;5.70;;;26.50;69.80;;;;;;5064696;28;20525;-82
2022/08/22 07:00:53;;;;;;;6.80;5.77;;;26.80;68.70;;;;;;5069251;28;20440;-81
2022/08/22 07:03:26;;;;;;;6.80;5.47;;;27.40;66.10;;;;;;5065467;28;20887;-83
2022/08/22 07:05:55;;;;;;;6.00;5.40;;;28.00;63.40;;;;;;5069974;28;20425;-82
2022/08/22 07:08:24;;;;;;;7.50;5.90;;;28.30;60.80;;;;;;5056920;28;20445;-81
2022/08/22 07:10:57;;;;;;;6.47;5.17;;;28.40;59.80;;;;;;5069782;28;20445;-84
2022/08/22 07:13:27;;;;;;;6.53;5.90;;;29.00;58.30;;;;;;5079507;28;20464;-81
2022/08/22 07:15:56;;;;;;;6.90;5.70;;;29.50;57.40;;;;;;5059825;28;20432;-83
2022/08/22 07:18:25;;;;;;;6.20;5.53;;;30.00;56.30;;;;;;5058056;28;20507;-82
2022/08/22 07:20:55;;;;;;;7.13;6.03;;;30.10;55.10;;;;;;5067188;28;20796;-83
2022/08/22 07:23:31;;;;;;;8.83;5.60;;;29.50;55.00;;;;;;5063811;28;20544;-83
2022/08/22 07:26:13;;;;;;;6.90;5.27;;;29.50;55.20;;;;;;5058291;28;21009;-84
2022/08/22 07:28:46;;;;;;;6.77;6.00;;;29.80;55.60;;;;;;5058351;28;20443;-84
2022/08/22 07:31:19;;;;;;;5.90;5.30;;;29.70;54.40;;;;;;5058030;28;20931;-83
2022/08/22 07:33:49;;;;;;;6.83;5.70;;;30.10;54.70;;;;;;5057545;28;20470;-84
2022/08/22 07:36:31;;;;;;;10.40;6.60;;;31.00;53.20;;;;;;5057673;28;20495;-83
2022/08/22 07:39:15;;;;;;;9.47;5.60;;;31.90;51.20;;;;;;5058726;28;20509;-84
2022/08/22 07:41:59;;;;;;;7.03;5.43;;;32.20;50.10;;;;;;5059418;28;20452;-84
2022/08/22 07:44:34;;;;;;;6.80;6.10;;;31.90;49.40;;;;;;5057963;28;20475;-82
2022/08/22 07:47:07;;;;;;;8.00;5.50;;;31.20;50.10;;;;;;5038104;28;21246;-82
2022/08/22 07:49:39;;;;;;;8.03;5.47;;;30.30;51.40;;;;;;5038016;28;20434;-81
2022/08/22 07:52:09;;;;;;;5.40;4.90;;;29.30;53.30;;;;;;5049097;28;20505;-80
2022/08/22 07:54:41;;;;;;;8.37;5.57;;;28.80;54.20;;;;;;5047085;28;20494;-82
2022/08/22 07:57:12;;;;;;;7.50;5.50;;;27.90;56.10;;;;;;5051235;28;20505;-83
2022/08/22 07:59:51;;;;;;;6.00;5.07;;;27.30;57.70;;;;;;5037881;28;20478;-82
2022/08/22 08:02:20;;;;;;;9.37;5.27;;;26.70;59.20;;;;;;5037554;28;20494;-83
2022/08/22 08:04:49;;;;;;;6.47;4.93;;;27.20;59.70;;;;;;5043527;28;20464;-82
2022/08/22 08:07:19;;;;;;;6.37;5.80;;;27.80;58.70;;;;;;5039987;28;20434;-83
2022/08/22 08:09:52;;;;;;;6.83;5.60;;;27.40;58.70;;;;;;5040845;28;20813;-84
2022/08/22 08:12:28;;;;;;;6.27;5.03;;;27.50;58.90;;;;;;5039808;28;20441;-83
2022/08/22 08:14:55;;;;;;;8.23;5.33;;;28.10;58.30;;;;;;5058512;28;20500;-83
2022/08/22 08:17:25;;;;;;;6.80;4.57;;;29.00;56.70;;;;;;5050468;28;21169;-84
2022/08/22 08:19:52;;;;;;;6.50;5.23;;;30.90;54.20;;;;;;5040699;28;20534;-83
2022/08/22 08:22:23;;;;;;;6.23;4.63;;;31.00;52.40;;;;;;5038089;28;20958;-83
2022/08/22 08:24:51;;;;;;;7.90;4.70;;;32.20;51.10;;;;;;5041454;28;20477;-83
2022/08/22 08:30:16;;;;;;;5.83;4.93;;;34.40;47.60;;;;;;5035747;28;20426;-83
2022/08/22 08:32:47;;;;;;;5.73;4.50;;;35.80;44.90;;;;;;5037095;28;20452;-83
2022/08/22 08:35:21;;;;;;;7.13;5.40;;;37.00;42.70;;;;;;5035651;28;20933;-83
2022/08/22 08:37:53;;;;;;;6.77;5.40;;;37.50;41.10;;;;;;5038873;28;20465;-83
2022/08/22 08:40:44;;;;;;;7.77;5.17;;;37.40;40.50;;;;;;5040332;28;20855;-84
2022/08/22 08:43:26;;;;;;;7.70;5.00;;;37.90;40.40;;;;;;5035418;28;20828;-84
2022/08/22 08:46:33;;;;;;;5.17;4.77;;;38.80;38.70;;;;;;5042046;28;20437;-84
2022/08/22 08:49:40;;;;;;;5.77;5.27;;;38.20;38.30;;;;;;5046788;28;20442;-84
2022/08/22 08:52:27;;;;;;;6.13;4.67;;;38.10;38.10;;;;;;5036122;28;20454;-83
2022/08/22 08:55:11;;;;;;;7.03;5.50;;;37.60;38.90;;;;;;5065230;28;20463;-82
2022/08/22 08:57:48;;;;;;;6.53;5.40;;;38.30;38.50;;;;;;5065776;28;20435;-81
2022/08/22 09:00:21;;;;;;;7.90;7.10;;;39.00;36.80;;;;;;5065264;28;20491;-82
2022/08/22 09:02:56;;;;;;;7.17;4.93;;;39.60;36.30;;;;;;5070446;28;20417;-89
2022/08/22 09:05:53;;;;;;;7.60;5.00;;;40.10;35.70;;;;;;5052630;28;20497;-87
2022/08/22 09:08:58;;;;;;;5.90;5.30;;;40.50;34.80;;;;;;5048915;28;20445;-84
2022/08/22 09:11:56;;;;;;;4.57;4.27;;;40.20;34.20;;;;;;5020691;28;20505;-87
2022/08/22 09:14:41;;;;;;;5.67;4.80;;;39.50;35.00;;;;;;5055964;28;20476;-86
2022/08/22 09:17:35;;;;;;;5.07;4.57;;;39.70;35.50;;;;;;5049111;28;20441;-86
2022/08/22 09:20:24;;;;;;;5.93;4.80;;;39.60;35.30;;;;;;5044688;28;20482;-86
2022/08/22 09:23:22;;;;;;;7.17;5.40;;;41.10;34.20;;;;;;5043328;28;20437;-87
2022/08/22 09:25:54;;;;;;;10.23;6.53;;;41.10;33.20;;;;;;5043704;28;20499;-87
2022/08/22 09:28:31;;;;;;;6.40;5.43;;;40.30;34.10;;;;;;5048631;28;20448;-85
2022/08/22 09:31:14;;;;;;;5.70;5.20;;;39.30;34.50;;;;;;5043735;28;20861;-84
2022/08/22 09:33:53;;;;;;;6.30;5.80;;;39.00;35.40;;;;;;5046730;28;20834;-83
2022/08/22 09:36:24;;;;;;;6.53;6.03;;;38.40;36.10;;;;;;5045113;28;20814;-83
2022/08/22 09:38:57;;;;;;;9.80;5.07;;;38.10;37.50;;;;;;5050056;28;20484;-82
2022/08/22 09:41:37;;;;;;;6.67;4.80;;;38.60;36.90;;;;;;5064554;28;20511;-82
2022/08/22 09:44:15;;;;;;;6.20;4.87;;;39.70;35.20;;;;;;5065929;28;20472;-84
2022/08/22 10:08:55;;;;;;;5.30;4.90;;;40.80;32.50;;;;;;5197836;22;20507;-83
2022/08/22 10:11:26;;;;;;;4.50;4.10;;;41.20;31.80;;;;;;5052401;28;20433;-83
2022/08/22 10:14:02;;;;;;;5.90;4.77;;;39.70;32.90;;;;;;5046915;28;20460;-82
2022/08/22 10:17:03;;;;;;;5.83;5.33;;;39.50;32.80;;;;;;5050116;28;20461;-82
2022/08/22 10:19:36;;;;;;;5.33;4.93;;;38.20;34.30;;;;;;5015926;28;20480;-83
2022/08/22 10:22:39;;;;;;;5.00;4.70;;;36.30;36.80;;;;;;5033568;28;20465;-83
2022/08/22 10:25:41;;;;;;;5.93;5.43;;;34.90;39.00;;;;;;5041807;28;20443;-83
2022/08/22 10:28:30;;;;;;;5.47;5.07;;;33.70;41.00;;;;;;4994669;28;20442;-83
2022/08/22 10:31:18;;;;;;;5.90;5.30;;;32.80;42.20;;;;;;4989229;28;20458;-82
2022/08/22 10:33:57;;;;;;;5.87;5.47;;;31.50;44.10;;;;;;4985142;28;20532;-83
2022/08/22 10:36:34;;;;;;;5.67;5.27;;;30.60;45.30;;;;;;4978281;28;20447;-83
2022/08/22 10:39:06;;;;;;;6.53;5.93;;;30.20;46.40;;;;;;4995151;28;20460;-83
2022/08/22 10:41:38;;;;;;;6.77;6.03;;;29.90;47.40;;;;;;5037780;28;20469;-83
2022/08/22 10:44:16;;;;;;;5.90;5.30;;;29.90;47.10;;;;;;5040685;28;20477;-83
2022/08/22 10:46:52;;;;;;;5.83;5.33;;;29.90;46.90;;;;;;5042758;28;20440;-83
2022/08/22 10:49:23;;;;;;;5.40;4.93;;;29.90;46.90;;;;;;5046988;28;20442;-83
2022/08/22 10:51:56;;;;;;;6.20;5.30;;;29.90;47.20;;;;;;5043429;28;20465;-83
2022/08/22 10:54:46;;;;;;;6.23;5.33;;;29.70;47.50;;;;;;5045410;28;20544;-83
2022/08/22 10:57:27;;;;;;;6.40;5.90;;;29.50;48.40;;;;;;5044622;28;20532;-83
2022/08/22 11:00:02;;;;;;;5.87;5.37;;;29.50;48.20;;;;;;5043007;28;20474;-83
2022/08/22 11:02:52;;;;;;;6.10;5.50;;;29.50;48.20;;;;;;5041074;28;20443;-83
2022/08/22 11:05:31;;;;;;;6.47;5.87;;;29.60;47.80;;;;;;5068646;28;20437;-81
2022/08/22 11:08:34;;;;;;;4.70;4.30;;;29.80;47.00;;;;;;5060778;28;20452;-82
2022/08/22 11:11:12;;;;;;;4.80;4.40;;;29.80;47.10;;;;;;5031381;28;20965;-83
2022/08/22 11:13:49;;;;;;;5.20;4.80;;;29.30;47.60;;;;;;5044759;28;20857;-83
2022/08/22 11:16:29;;;;;;;5.07;4.57;;;29.10;48.00;;;;;;5045966;28;20436;-82
2022/08/22 11:19:15;;;;;;;6.17;5.60;;;29.10;48.10;;;;;;5045456;28;20452;-82
2022/08/22 11:21:50;;;;;;;5.20;4.80;;;29.10;48.50;;;;;;5039504;28;20458;-83
2022/08/22 11:24:46;;;;;;;4.80;4.40;;;29.30;48.20;;;;;;5055087;28;20457;-83
2022/08/22 11:27:20;;;;;;;4.80;4.47;;;29.40;46.40;;;;;;5055098;28;20938;-83
2022/08/22 11:29:56;;;;;;;5.40;4.90;;;29.50;46.00;;;;;;5055967;28;20434;-83
2022/08/22 11:32:32;;;;;;;5.20;4.70;;;29.20;46.60;;;;;;5050454;28;20442;-83
2022/08/22 11:35:03;;;;;;;5.63;4.93;;;29.50;46.60;;;;;;5051517;28;20440;-84
2022/08/22 11:37:43;;;;;;;5.20;4.80;;;29.70;46.80;;;;;;5050232;28;20522;-84
2022/08/22 11:40:31;;;;;;;6.50;4.57;;;29.90;46.30;;;;;;5051408;28;20474;-82
2022/08/22 11:43:08;;;;;;;5.43;4.30;;;30.10;46.00;;;;;;5046224;28;20498;-82
2022/08/22 11:45:42;;;;;;;6.70;5.00;;;30.40;44.90;;;;;;5054625;28;20505;-83
2022/08/22 11:48:19;;;;;;;4.77;4.37;;;30.70;44.40;;;;;;5056555;28;20452;-85
2022/08/22 11:50:51;;;;;;;5.20;4.70;;;33.60;41.40;;;;;;5047952;28;20441;-83
2022/08/22 11:53:26;;;;;;;4.40;4.00;;;37.30;36.50;;;;;;5056140;28;20459;-82
2022/08/22 11:56:05;;;;;;;4.43;4.03;;;40.40;32.00;;;;;;5058856;28;20443;-83
2022/08/22 11:58:43;;;;;;;4.43;4.03;;;42.00;29.30;;;;;;5055999;28;20882;-83
2022/08/22 12:01:17;;;;;;;4.53;4.20;;;42.40;28.40;;;;;;5045840;28;20484;-83
2022/08/22 12:03:52;;;;;;;4.60;4.20;;;41.90;28.60;;;;;;5046656;28;20468;-84
2022/08/22 12:06:48;;;;;;;5.37;4.50;;;41.90;28.60;;;;;;5049117;28;20893;-82
2022/08/22 12:09:21;;;;;;;4.13;3.83;;;41.70;28.70;;;;;;5025334;28;20479;-83
2022/08/22 12:12:02;;;;;;;4.57;4.17;;;41.10;28.80;;;;;;5044787;28;20487;-82
2022/08/22 12:14:36;;;;;;;5.20;4.67;;;42.50;28.60;;;;;;5047628;28;20472;-83
2022/08/22 12:17:18;;;;;;;4.23;3.93;;;43.50;27.40;;;;;;5046461;28;20441;-82
2022/08/22 12:20:02;;;;;;;4.37;3.97;;;42.60;26.80;;;;;;5044952;28;20478;-83
2022/08/22 12:23:06;;;;;;;4.70;4.30;;;41.20;28.10;;;;;;5045238;28;20496;-83
2022/08/22 12:25:55;;;;;;;4.47;4.07;;;39.40;29.10;;;;;;5026224;28;20538;-83
2022/08/22 12:28:31;;;;;;;4.37;3.97;;;37.40;31.30;;;;;;5046976;28;21252;-83
2022/08/22 12:31:08;;;;;;;4.50;4.10;;;36.40;33.20;;;;;;5054474;28;20963;-83
2022/08/22 12:34:08;;;;;;;3.87;3.57;;;37.30;32.10;;;;;;5058898;28;20494;-80
2022/08/22 12:37:09;;;;;;;4.70;4.23;;;39.60;30.30;;;;;;5062434;28;20441;-80
2022/08/22 12:40:03;;;;;;;3.80;3.50;;;41.50;28.20;;;;;;5053571;28;20457;-81
2022/08/22 12:43:02;;;;;;;4.37;3.97;;;41.60;27.40;;;;;;5068082;28;20441;-83
2022/08/22 12:45:42;;;;;;;4.57;4.17;;;39.70;28.50;;;;;;5047962;28;20442;-83
2022/08/22 12:48:25;;;;;;;3.83;3.53;;;37.70;30.40;;;;;;5043286;28;20458;-84
2022/08/22 12:50:57;;;;;;;3.53;3.33;;;36.30;31.40;;;;;;5052311;28;20824;-83
2022/08/22 12:53:47;;;;;;;4.30;3.90;;;35.00;32.90;;;;;;5043390;28;20579;-83
2022/08/22 12:56:26;;;;;;;4.13;3.83;;;34.50;33.90;;;;;;5044940;28;20453;-84
2022/08/22 12:59:20;;;;;;;3.87;3.57;;;34.60;34.00;;;;;;5049696;28;20430;-84
2022/08/22 13:01:49;;;;;;;3.97;3.50;;;37.40;31.10;;;;;;5045104;28;20480;-82
2022/08/22 13:04:19;;;;;;;4.10;2.97;;;40.10;29.70;;;;;;5037804;28;20515;-80
2022/08/22 13:06:51;;;;;;;3.63;3.33;;;41.20;29.50;;;;;;5035888;28;20937;-79
2022/08/22 13:09:26;;;;;;;4.20;3.80;;;39.50;28.80;;;;;;5042496;28;20444;-80
2022/08/22 13:11:59;;;;;;;4.70;3.40;;;39.10;28.50;;;;;;5055925;28;20432;-82
2022/08/22 13:14:28;;;;;;;4.70;4.30;;;37.40;29.40;;;;;;5046186;28;20495;-80
2022/08/22 13:16:58;;;;;;;4.57;4.17;;;35.60;31.40;;;;;;5064459;28;20438;-79
2022/08/22 13:19:28;;;;;;;4.00;3.70;;;34.20;33.60;;;;;;5064070;28;20425;-78
2022/08/22 13:22:01;;;;;;;5.30;4.30;;;33.20;36.10;;;;;;5068191;28;20483;-79
2022/08/22 13:24:36;;;;;;;4.93;4.53;;;32.40;37.30;;;;;;5060725;28;20442;-80
2022/08/22 13:27:08;;;;;;;4.87;4.37;;;31.80;37.90;;;;;;5046501;28;20467;-79
2022/08/22 13:29:45;;;;;;;3.97;3.67;;;31.60;38.00;;;;;;5047497;28;20449;-80
2022/08/22 13:32:22;;;;;;;4.93;4.53;;;31.20;38.40;;;;;;5054521;28;20465;-80
2022/08/22 13:34:53;;;;;;;6.17;3.80;;;31.00;38.80;;;;;;5054152;28;20468;-81
2022/08/22 13:37:34;;;;;;;5.03;3.37;;;31.40;39.00;;;;;;5051753;28;20445;-81
2022/08/22 13:40:06;;;;;;;3.67;3.37;;;33.50;37.20;;;;;;5047943;28;20591;-84
2022/08/22 13:42:38;;;;;;;5.00;3.50;;;36.40;33.60;;;;;;5043427;28;20439;-83
2022/08/22 13:45:15;;;;;;;4.10;3.70;;;38.40;31.50;;;;;;5050347;28;20449;-82
2022/08/22 13:47:53;;;;;;;4.80;3.60;;;39.60;29.30;;;;;;5050318;28;20474;-82
2022/08/22 13:50:23;;;;;;;4.37;3.97;;;40.60;28.30;;;;;;5047084;28;20440;-83
2022/08/22 13:52:57;;;;;;;4.57;4.17;;;40.50;28.10;;;;;;5040921;28;20470;-82
2022/08/22 13:55:42;;;;;;;10.33;4.27;;;38.80;29.20;;;;;;5049699;28;20443;-82
2022/08/22 13:58:22;;;;;;;8.07;3.73;;;36.90;30.90;;;;;;5049255;28;20453;-84
2022/08/22 14:01:26;;;;;;;4.80;3.70;;;35.20;33.00;;;;;;5050814;28;20505;-83
2022/08/22 14:03:57;;;;;;;5.70;4.50;;;32.90;36.30;;;;;;5054230;28;20982;-82
2022/08/22 14:06:32;;;;;;;4.77;4.37;;;31.70;38.10;;;;;;5054836;28;20458;-82